Terminal Aerodrome Forecast
Issued by NWS

Home | Current Version | Previous Version | Text Only | Print | Product List | Glossary On
Versions: 1 2 3 4 5 6 7 8 9 10 11 12 13 14 15 16 17 18 19 20
000
FTUS45 KGJT 011442 AAA
TAFVEL
TAF AMD
KVEL 011442Z 0115/0212 04015G30KT P6SM BKN200
     FM012000 08010G20KT P6SM OVC200
     FM020400 04010KT P6SM BKN140
     FM021000 03006KT P6SM BKN110=

USA.gov is the U.S. government's official web portal to all federal, state and local government web resources and services.